createdAt,value
2023-01-29T00:04:30.895Z,19.45
2023-01-29T00:09:23.665Z,19.44
2023-01-29T00:14:16.631Z,19.23
2023-01-29T00:19:09.915Z,19.37
2023-01-29T00:24:02.926Z,19.41
2023-01-29T00:29:01.014Z,19.48
2023-01-29T00:33:54.135Z,19.23
2023-01-29T00:38:54.933Z,19.38
2023-01-29T00:44:08.208Z,19.48
2023-01-29T00:49:02.072Z,19.45
2023-01-29T00:53:58.317Z,19.35
2023-01-29T00:58:51.197Z,19.40
2023-01-29T01:03:45.047Z,19.36
2023-01-29T01:08:56.147Z,19.48
2023-01-29T01:13:48.528Z,19.37
2023-01-29T01:18:41.474Z,19.38
2023-01-29T01:23:34.687Z,19.26
2023-01-29T01:28:28.564Z,19.39
2023-01-29T01:33:21.139Z,19.34
2023-01-29T01:38:14.151Z,19.39
2023-01-29T01:43:10.138Z,19.50
2023-01-29T01:48:08.862Z,19.53
2023-01-29T01:53:11.367Z,19.51
2023-01-29T01:58:12.638Z,19.52
2023-01-29T02:03:24.648Z,19.30
2023-01-29T02:08:53.297Z,19.42
2023-01-29T02:13:46.576Z,19.53
2023-01-29T02:18:40.222Z,19.54
2023-01-29T02:23:47.328Z,19.47
2023-01-29T02:28:53.242Z,19.47
2023-01-29T02:33:56.157Z,19.40
2023-01-29T02:39:20.176Z,19.33
2023-01-29T02:44:24.756Z,19.46
2023-01-29T02:49:28.212Z,19.32
2023-01-29T02:54:25.910Z,19.40
2023-01-29T02:59:36.166Z,19.27
2023-01-29T03:04:35.106Z,19.37
2023-01-29T03:09:38.079Z,19.21
2023-01-29T03:14:55.549Z,19.34
2023-01-29T03:19:49.819Z,19.20
2023-01-29T03:25:09.255Z,19.07
2023-01-29T03:30:27.905Z,19.16
2023-01-29T03:35:35.843Z,19.30
2023-01-29T03:40:37.776Z,19.16
2023-01-29T03:45:33.622Z,19.29
2023-01-29T03:50:41.503Z,19.24
2023-01-29T03:55:44.790Z,19.19
2023-01-29T04:00:45.794Z,19.20
2023-01-29T04:06:17.870Z,19.15
2023-01-29T04:11:22.593Z,19.27
2023-01-29T04:16:20.193Z,19.09
2023-01-29T04:21:32.095Z,19.12
2023-01-29T04:26:31.566Z,19.11
2023-01-29T04:31:50.761Z,19.23
2023-01-29T04:37:03.939Z,19.27
2023-01-29T04:42:11.293Z,19.13
2023-01-29T04:47:21.426Z,19.24
2023-01-29T04:52:44.642Z,19.25
2023-01-29T04:58:01.507Z,19.22
2023-01-29T05:02:54.548Z,19.15
2023-01-29T05:07:49.122Z,19.27
2023-01-29T05:12:47.173Z,19.23
2023-01-29T05:17:40.817Z,19.24
2023-01-29T05:22:37.939Z,19.17
2023-01-29T05:27:54.124Z,19.14
2023-01-29T05:32:47.867Z,19.28
2023-01-29T05:37:41.421Z,19.30
2023-01-29T05:42:35.234Z,19.17
2023-01-29T05:47:28.812Z,19.17
2023-01-29T05:52:21.887Z,19.26
2023-01-29T05:57:15.821Z,19.20
2023-01-29T06:02:09.158Z,19.26
2023-01-29T06:07:04.297Z,19.29
2023-01-29T06:11:57.280Z,19.27
2023-01-29T06:16:50.100Z,19.16
2023-01-29T06:21:44.634Z,19.28
2023-01-29T06:26:39.583Z,19.16
2023-01-29T06:31:38.899Z,19.29
2023-01-29T06:36:33.274Z,19.28
2023-01-29T06:41:26.242Z,19.28
2023-01-29T06:46:20.142Z,19.31
2023-01-29T06:51:13.674Z,19.30
2023-01-29T06:56:06.622Z,19.23
2023-01-29T07:01:08.098Z,19.31
2023-01-29T07:06:00.781Z,19.06
2023-01-29T07:10:53.574Z,19.30
2023-01-29T07:15:46.760Z,19.20
2023-01-29T07:20:43.051Z,19.34
2023-01-29T07:25:36.273Z,19.36
2023-01-29T07:30:29.724Z,19.38
2023-01-29T07:35:22.968Z,19.37
2023-01-29T07:40:16.500Z,19.30
2023-01-29T07:45:09.663Z,19.04
2023-01-29T07:50:03.350Z,19.14
2023-01-29T07:54:55.772Z,19.21
2023-01-29T07:59:48.655Z,18.31
2023-01-29T08:04:42.435Z,16.85
2023-01-29T08:09:35.190Z,16.86
2023-01-29T08:14:28.385Z,16.83
2023-01-29T08:19:21.824Z,16.65
2023-01-29T08:24:15.478Z,16.46
2023-01-29T08:29:08.891Z,16.40
2023-01-29T08:34:02.382Z,16.88
2023-01-29T08:38:56.275Z,16.74
2023-01-29T08:43:48.800Z,16.21
2023-01-29T08:48:42.768Z,16.26
2023-01-29T08:53:36.021Z,16.02
2023-01-29T08:58:30.121Z,15.86
2023-01-29T09:03:23.539Z,15.83
2023-01-29T09:08:16.370Z,15.74
2023-01-29T09:13:10.320Z,16.09
2023-01-29T09:18:07.288Z,15.79
2023-01-29T09:23:04.965Z,15.80
2023-01-29T09:27:58.700Z,15.92
2023-01-29T09:32:53.881Z,16.02
2023-01-29T09:37:51.549Z,15.55
2023-01-29T09:42:51.189Z,15.58
2023-01-29T09:47:45.508Z,15.85
2023-01-29T09:52:59.598Z,15.90
2023-01-29T09:57:58.104Z,16.02
2023-01-29T10:03:08.462Z,15.84
2023-01-29T10:08:12.456Z,15.83
2023-01-29T10:13:37.648Z,15.93
2023-01-29T10:18:50.134Z,16.10
2023-01-29T10:24:14.439Z,16.49
2023-01-29T10:29:08.610Z,16.58
2023-01-29T10:34:08.178Z,16.65
2023-01-29T10:39:01.688Z,17.01
2023-01-29T10:44:20.891Z,17.13
2023-01-29T10:49:22.769Z,17.23
2023-01-29T10:54:39.871Z,17.33
2023-01-29T10:59:45.068Z,17.28
2023-01-29T11:04:38.385Z,17.49
2023-01-29T11:09:39.357Z,17.54
2023-01-29T11:14:43.413Z,17.62
2023-01-29T11:19:44.936Z,17.70
2023-01-29T11:24:37.535Z,17.50
2023-01-29T11:29:48.058Z,17.82
2023-01-29T11:34:59.097Z,17.70
2023-01-29T11:39:52.173Z,17.89
2023-01-29T11:44:44.984Z,17.85
2023-01-29T11:49:39.516Z,17.98
2023-01-29T11:54:39.764Z,17.98
2023-01-29T11:59:41.116Z,18.00
2023-01-29T12:04:33.949Z,18.21
2023-01-29T12:09:29.940Z,18.32
2023-01-29T12:14:34.815Z,18.33
2023-01-29T12:19:43.815Z,18.44
2023-01-29T12:24:44.572Z,18.46
2023-01-29T12:29:58.247Z,18.50
2023-01-29T12:35:05.664Z,18.52
2023-01-29T12:39:58.646Z,18.40
2023-01-29T12:44:56.886Z,18.50
2023-01-29T12:49:57.093Z,18.54
2023-01-29T12:54:58.738Z,18.66
2023-01-29T13:00:19.316Z,18.78
2023-01-29T13:05:25.906Z,18.86
2023-01-29T13:10:24.097Z,18.90
2023-01-29T13:15:34.151Z,18.93
2023-01-29T13:20:32.481Z,19.01
2023-01-29T13:25:26.661Z,18.99
2023-01-29T13:30:36.997Z,19.00
2023-01-29T13:35:30.459Z,18.92
2023-01-29T13:40:27.392Z,19.03
2023-01-29T13:45:42.437Z,19.09
2023-01-29T13:50:43.349Z,18.91
2023-01-29T13:55:37.726Z,19.05
2023-01-29T14:00:36.385Z,19.05
2023-01-29T14:05:32.551Z,18.97
2023-01-29T14:10:27.480Z,18.90
2023-01-29T14:15:26.130Z,18.97
2023-01-29T14:20:22.321Z,18.95
2023-01-29T14:25:23.825Z,18.80
2023-01-29T14:30:19.413Z,18.81
2023-01-29T14:35:25.416Z,18.89
2023-01-29T14:40:20.328Z,18.94
2023-01-29T14:45:25.108Z,19.01
2023-01-29T14:50:29.724Z,18.98
2023-01-29T14:55:36.479Z,19.06
2023-01-29T15:00:33.397Z,19.05
2023-01-29T15:05:30.001Z,18.99
2023-01-29T15:10:38.271Z,18.99
2023-01-29T15:15:31.209Z,19.12
2023-01-29T15:20:46.021Z,19.13
2023-01-29T15:25:50.133Z,19.15
2023-01-29T15:30:45.100Z,19.17
2023-01-29T15:35:40.774Z,19.19
2023-01-29T15:40:34.724Z,19.12
2023-01-29T15:45:31.760Z,19.22
2023-01-29T15:50:25.473Z,19.24
2023-01-29T15:55:21.855Z,19.30
2023-01-29T16:00:28.048Z,19.21
2023-01-29T16:05:24.452Z,19.36
2023-01-29T16:10:21.208Z,19.40
2023-01-29T16:15:21.856Z,19.32
2023-01-29T16:20:42.809Z,19.45
2023-01-29T16:26:03.126Z,19.45
2023-01-29T16:31:01.928Z,19.37
2023-01-29T16:35:57.168Z,19.37
2023-01-29T16:41:08.638Z,19.53
2023-01-29T16:46:25.404Z,19.27
2023-01-29T16:51:36.953Z,19.32
2023-01-29T16:56:34.015Z,19.49
2023-01-29T17:01:33.650Z,19.57
2023-01-29T17:06:28.147Z,19.58
2023-01-29T17:11:30.202Z,19.37
2023-01-29T17:16:34.323Z,19.51
2023-01-29T17:21:27.384Z,19.58
2023-01-29T17:26:20.991Z,19.61
2023-01-29T17:31:14.265Z,19.52
2023-01-29T17:36:12.586Z,19.66
2023-01-29T17:41:13.846Z,19.69
2023-01-29T17:46:06.801Z,19.66
2023-01-29T17:51:03.242Z,19.60
2023-01-29T17:55:56.030Z,19.73
2023-01-29T18:00:49.501Z,19.78
2023-01-29T18:05:43.463Z,19.65
2023-01-29T18:10:36.629Z,19.77
2023-01-29T18:15:30.884Z,19.70
2023-01-29T18:20:26.502Z,19.86
2023-01-29T18:25:19.847Z,19.83
2023-01-29T18:30:13.588Z,19.75
2023-01-29T18:35:07.136Z,19.94
2023-01-29T18:39:59.840Z,19.93
2023-01-29T18:44:52.314Z,19.88
2023-01-29T18:49:45.315Z,19.88
2023-01-29T18:54:38.244Z,19.97
2023-01-29T18:59:31.150Z,19.97
2023-01-29T19:04:25.187Z,19.90
2023-01-29T19:09:17.738Z,20.05
2023-01-29T19:14:12.048Z,19.98
2023-01-29T19:19:05.804Z,19.86
2023-01-29T19:23:58.313Z,19.80
2023-01-29T19:28:51.764Z,19.72
2023-01-29T19:33:44.631Z,19.59
2023-01-29T19:38:38.838Z,19.82
2023-01-29T19:43:32.698Z,19.78
2023-01-29T19:48:26.696Z,19.70
2023-01-29T19:53:19.993Z,19.73
2023-01-29T19:58:13.826Z,19.72
2023-01-29T20:03:07.297Z,19.51
2023-01-29T20:08:00.487Z,19.77
2023-01-29T20:12:53.963Z,19.78
2023-01-29T20:17:47.210Z,19.81
2023-01-29T20:22:40.816Z,19.81
2023-01-29T20:27:33.149Z,19.67
2023-01-29T20:32:26.403Z,19.70
2023-01-29T20:37:20.467Z,19.79
2023-01-29T20:42:13.904Z,19.77
2023-01-29T20:47:07.412Z,19.54
2023-01-29T20:52:00.552Z,19.77
2023-01-29T20:56:53.069Z,19.74
2023-01-29T21:01:47.395Z,19.64
2023-01-29T21:06:40.086Z,19.51
2023-01-29T21:11:34.082Z,19.73
2023-01-29T21:16:29.040Z,19.68
2023-01-29T21:21:22.257Z,19.69
2023-01-29T21:26:15.196Z,19.63
2023-01-29T21:31:15.428Z,19.65
2023-01-29T21:36:10.482Z,19.61
2023-01-29T21:41:06.359Z,19.62
2023-01-29T21:46:01.729Z,19.59
2023-01-29T21:50:54.789Z,19.58
2023-01-29T21:55:48.959Z,19.56
2023-01-29T22:00:41.716Z,19.44
2023-01-29T22:05:34.902Z,19.55
2023-01-29T22:10:29.133Z,19.40
2023-01-29T22:15:24.047Z,19.41
2023-01-29T22:20:18.459Z,19.49
2023-01-29T22:25:12.096Z,19.49
2023-01-29T22:30:05.685Z,19.34
2023-01-29T22:34:59.087Z,19.34
2023-01-29T22:39:51.909Z,19.45
2023-01-29T22:44:50.310Z,19.45
2023-01-29T22:49:45.806Z,19.49
2023-01-29T22:54:44.211Z,19.44
2023-01-29T22:59:36.815Z,19.47
2023-01-29T23:04:30.256Z,19.51
2023-01-29T23:09:22.924Z,19.43
2023-01-29T23:14:16.204Z,19.51
2023-01-29T23:19:09.001Z,19.54
2023-01-29T23:24:01.515Z,19.58
2023-01-29T23:28:54.181Z,19.45
2023-01-29T23:33:46.952Z,19.60
2023-01-29T23:38:39.941Z,19.61
2023-01-29T23:43:33.632Z,19.63
2023-01-29T23:48:26.550Z,19.53
2023-01-29T23:53:20.010Z,19.70
2023-01-29T23:58:12.382Z,19.73
